createdAt,value
2022-11-05T00:00:08.573Z,101333.59
2022-11-05T00:02:59.503Z,101335.22
2022-11-05T00:05:50.680Z,101336.00
2022-11-05T00:08:41.108Z,101333.38
2022-11-05T00:11:17.919Z,101335.13
2022-11-05T00:14:08.712Z,101327.28
2022-11-05T00:16:46.868Z,101334.13
2022-11-05T00:19:18.827Z,101337.66
2022-11-05T00:22:08.963Z,101343.81
2022-11-05T00:24:59.624Z,101348.09
2022-11-05T00:27:34.304Z,101346.34
2022-11-05T00:30:07.561Z,101347.25
2022-11-05T00:32:40.316Z,101349.03
2022-11-05T00:35:12.707Z,101356.00
2022-11-05T00:37:49.801Z,101352.53
2022-11-05T00:40:22.507Z,101360.31
2022-11-05T00:43:15.161Z,101349.91
2022-11-05T00:45:50.011Z,101360.28
2022-11-05T00:48:41.174Z,101355.06
2022-11-05T00:51:13.134Z,101359.44
2022-11-05T00:53:45.110Z,101362.06
2022-11-05T00:56:17.169Z,101362.06
2022-11-05T00:58:49.055Z,101365.50
2022-11-05T01:01:21.064Z,101361.13
2022-11-05T01:03:53.327Z,101363.69
2022-11-05T01:06:25.446Z,101375.84
2022-11-05T01:08:57.349Z,101368.03
2022-11-05T01:11:37.184Z,101381.97
2022-11-05T01:14:13.994Z,101387.16
2022-11-05T01:16:46.075Z,101384.50
2022-11-05T01:19:18.070Z,101381.88
2022-11-05T01:21:50.089Z,101393.13
2022-11-05T01:24:22.008Z,101393.03
2022-11-05T01:26:54.009Z,101380.91
2022-11-05T01:29:26.044Z,101393.00
2022-11-05T01:31:58.362Z,101392.09
2022-11-05T01:34:30.388Z,101395.59
2022-11-05T01:37:02.377Z,101388.66
2022-11-05T01:39:34.383Z,101395.59
2022-11-05T01:42:24.815Z,101399.97
2022-11-05T01:45:16.889Z,101395.66
2022-11-05T01:48:07.255Z,101397.38
2022-11-05T01:50:43.598Z,101393.84
2022-11-05T01:53:31.281Z,101391.13
2022-11-05T01:56:32.528Z,101392.97
2022-11-05T01:59:11.891Z,101404.28
2022-11-05T02:01:45.228Z,101406.84
2022-11-05T02:04:29.210Z,101402.41
2022-11-05T02:07:01.971Z,101405.84
2022-11-05T02:10:08.712Z,101399.63
2022-11-05T02:12:46.576Z,101396.06
2022-11-05T02:15:35.603Z,101393.41
2022-11-05T02:18:49.091Z,101394.19
2022-11-05T02:21:49.668Z,101388.97
2022-11-05T02:25:05.204Z,101389.78
2022-11-05T02:28:09.647Z,101400.16
2022-11-05T02:30:58.359Z,101405.28
2022-11-05T02:33:43.018Z,101400.81
2022-11-05T02:36:26.798Z,101407.69
2022-11-05T02:39:10.658Z,101403.34
2022-11-05T02:42:34.246Z,101414.63
2022-11-05T02:45:46.784Z,101413.69
2022-11-05T02:48:37.625Z,101408.50
2022-11-05T02:51:41.059Z,101411.88
2022-11-05T02:54:30.926Z,101413.53
2022-11-05T02:57:05.207Z,101410.00
2022-11-05T02:59:37.118Z,101414.38
2022-11-05T03:02:09.297Z,101411.75
2022-11-05T03:04:41.501Z,101407.34
2022-11-05T03:07:39.619Z,101410.75
2022-11-05T03:10:19.130Z,101412.38
2022-11-05T03:13:26.401Z,101408.00
2022-11-05T03:16:04.777Z,101415.94
2022-11-05T03:19:07.145Z,101416.88
2022-11-05T03:22:02.526Z,101417.63
2022-11-05T03:24:41.500Z,101415.13
2022-11-05T03:27:20.085Z,101418.53
2022-11-05T03:29:58.778Z,101430.59
2022-11-05T03:32:34.315Z,101423.66
2022-11-05T03:35:15.557Z,101424.63
2022-11-05T03:37:51.422Z,101426.38
2022-11-05T03:40:25.388Z,101437.81
2022-11-05T03:42:59.621Z,101432.53
2022-11-05T03:45:38.886Z,101433.50
2022-11-05T03:48:14.138Z,101432.66
2022-11-05T03:51:05.255Z,101434.31
2022-11-05T03:53:51.810Z,101438.69
2022-11-05T03:56:59.440Z,101432.59
2022-11-05T03:59:32.731Z,101446.22
2022-11-05T04:02:04.774Z,101440.16
2022-11-05T04:04:37.178Z,101447.84
2022-11-05T04:07:32.179Z,101460.03
2022-11-05T04:10:23.692Z,101459.09
2022-11-05T04:13:14.217Z,101459.88
2022-11-05T04:16:05.261Z,101457.16
2022-11-05T04:18:37.640Z,101454.53
2022-11-05T04:21:29.604Z,101457.13
2022-11-05T04:24:10.277Z,101455.34
2022-11-05T04:26:43.885Z,101463.31
2022-11-05T04:29:34.829Z,101461.56
2022-11-05T04:32:06.791Z,101461.53
2022-11-05T04:34:38.927Z,101464.22
2022-11-05T04:37:10.928Z,101472.94
2022-11-05T04:39:42.975Z,101470.34
2022-11-05T04:42:15.191Z,101466.69
2022-11-05T04:44:47.221Z,101467.47
2022-11-05T04:47:19.337Z,101463.91
2022-11-05T04:49:51.331Z,101462.94
2022-11-05T04:52:23.270Z,101462.94
2022-11-05T04:54:55.163Z,101468.00
2022-11-05T04:57:27.257Z,101475.59
2022-11-05T04:59:59.295Z,101467.78
2022-11-05T05:02:31.268Z,101475.50
2022-11-05T05:05:04.175Z,101474.59
2022-11-05T05:07:36.395Z,101474.59
2022-11-05T05:10:10.115Z,101469.34
2022-11-05T05:12:42.133Z,101469.47
2022-11-05T05:15:14.112Z,101477.28
2022-11-05T05:17:53.285Z,101475.66
2022-11-05T05:21:03.485Z,101479.97
2022-11-05T05:23:35.440Z,101478.88
2022-11-05T05:26:07.371Z,101484.81
2022-11-05T05:28:39.410Z,101482.34
2022-11-05T05:31:11.595Z,101495.22
2022-11-05T05:33:43.731Z,101492.69
2022-11-05T05:36:15.633Z,101494.34
2022-11-05T05:38:47.825Z,101497.91
2022-11-05T05:41:20.336Z,101492.56
2022-11-05T05:43:52.501Z,101497.81
2022-11-05T05:46:24.564Z,101505.34
2022-11-05T05:48:56.667Z,101510.59
2022-11-05T05:51:28.769Z,101505.38
2022-11-05T05:54:00.729Z,101506.28
2022-11-05T05:56:32.783Z,101499.28
2022-11-05T05:59:06.475Z,101507.19
2022-11-05T06:01:38.872Z,101514.88
2022-11-05T06:04:10.973Z,101504.56
2022-11-05T06:06:42.936Z,101513.94
2022-11-05T06:09:15.161Z,101514.78
2022-11-05T06:11:47.220Z,101518.09
2022-11-05T06:14:19.154Z,101521.59
2022-11-05T06:16:51.248Z,101522.50
2022-11-05T06:19:23.306Z,101516.41
2022-11-05T06:21:55.402Z,101508.69
2022-11-05T06:24:27.363Z,101516.59
2022-11-05T06:26:59.352Z,101519.22
2022-11-05T06:29:31.294Z,101518.09
2022-11-05T06:32:03.459Z,101520.00
2022-11-05T06:34:36.982Z,101527.88
2022-11-05T06:37:08.978Z,101527.53
2022-11-05T06:39:40.988Z,101532.72
2022-11-05T06:42:18.477Z,101537.13
2022-11-05T06:44:52.143Z,101539.03
2022-11-05T06:47:24.105Z,101548.38
2022-11-05T06:49:57.508Z,101551.84
2022-11-05T06:52:31.349Z,101546.63
2022-11-05T06:55:03.967Z,101556.97
2022-11-05T06:57:38.826Z,101559.53
2022-11-05T07:00:11.563Z,101565.56
2022-11-05T07:02:43.736Z,101575.97
2022-11-05T07:05:16.588Z,101573.94
2022-11-05T07:07:48.574Z,101583.50
2022-11-05T07:10:20.782Z,101579.22
2022-11-05T07:12:52.719Z,101583.81
2022-11-05T07:15:24.938Z,101590.03
2022-11-05T07:17:59.074Z,101589.88
2022-11-05T07:20:34.182Z,101590.00
2022-11-05T07:23:12.155Z,101591.81
2022-11-05T07:25:44.886Z,101587.53
2022-11-05T07:28:16.806Z,101589.31
2022-11-05T07:30:48.714Z,101583.47
2022-11-05T07:33:20.685Z,101588.06
2022-11-05T07:35:52.655Z,101591.50
2022-11-05T07:38:25.929Z,101593.31
2022-11-05T07:41:00.500Z,101595.22
2022-11-05T07:43:32.522Z,101596.34
2022-11-05T07:46:04.450Z,101601.72
2022-11-05T07:48:37.429Z,101599.25
2022-11-05T07:51:09.460Z,101602.00
2022-11-05T07:53:45.298Z,101594.25
2022-11-05T07:56:17.966Z,101602.16
2022-11-05T07:58:50.062Z,101599.72
2022-11-05T08:01:22.320Z,101598.06
2022-11-05T08:03:54.378Z,101604.94
2022-11-05T08:06:26.382Z,101602.22
2022-11-05T08:08:58.274Z,101600.63
2022-11-05T08:11:30.363Z,101600.84
2022-11-05T08:14:02.296Z,101594.16
2022-11-05T08:16:34.440Z,101596.88
2022-11-05T08:19:06.514Z,101599.66
2022-11-05T08:21:38.492Z,101607.63
2022-11-05T08:24:10.602Z,101603.28
2022-11-05T08:26:42.583Z,101608.69
2022-11-05T08:29:14.583Z,101608.78
2022-11-05T08:31:46.489Z,101614.19
2022-11-05T08:34:18.767Z,101618.88
2022-11-05T08:36:50.775Z,101616.69
2022-11-05T08:39:22.765Z,101617.88
2022-11-05T08:41:54.921Z,101618.91
2022-11-05T08:44:26.842Z,101614.59
2022-11-05T08:46:59.554Z,101616.34
2022-11-05T08:49:31.458Z,101624.28
2022-11-05T08:52:03.877Z,101614.59
2022-11-05T08:54:36.165Z,101622.56
2022-11-05T08:57:08.134Z,101619.16
2022-11-05T08:59:40.014Z,101609.59
2022-11-05T09:02:12.227Z,101621.78
2022-11-05T09:04:44.990Z,101619.31
2022-11-05T09:07:16.983Z,101620.25
2022-11-05T09:09:48.875Z,101623.47
2022-11-05T09:12:20.867Z,101623.50
2022-11-05T09:14:52.769Z,101620.09
2022-11-05T09:17:24.742Z,101627.13
2022-11-05T09:19:56.800Z,101627.31
2022-11-05T09:22:29.580Z,101628.28
2022-11-05T09:25:01.540Z,101629.94
2022-11-05T09:27:33.799Z,101625.88
2022-11-05T09:30:06.482Z,101628.59
2022-11-05T09:32:38.858Z,101631.28
2022-11-05T09:35:10.863Z,101624.56
2022-11-05T09:37:42.976Z,101630.75
2022-11-05T09:40:18.319Z,101624.75
2022-11-05T09:42:53.932Z,101635.22
2022-11-05T09:45:28.800Z,101632.66
2022-11-05T09:48:10.402Z,101631.63
2022-11-05T09:50:46.641Z,101630.91
2022-11-05T09:53:20.787Z,101637.03
2022-11-05T09:55:57.284Z,101643.28
2022-11-05T09:58:43.753Z,101633.78
2022-11-05T10:01:24.190Z,101643.47
2022-11-05T10:04:00.750Z,101633.84
2022-11-05T10:06:32.723Z,101636.59
2022-11-05T10:09:18.112Z,101639.25
2022-11-05T10:12:20.454Z,101638.47
2022-11-05T10:15:09.632Z,101642.97
2022-11-05T10:17:49.737Z,101643.03
2022-11-05T10:20:35.569Z,101642.28
2022-11-05T10:23:18.018Z,101658.00
2022-11-05T10:26:15.003Z,101654.53
2022-11-05T10:28:47.670Z,101648.38
2022-11-05T10:31:22.062Z,101648.41
2022-11-05T10:33:57.010Z,101657.16
2022-11-05T10:36:36.401Z,101660.63
2022-11-05T10:39:22.166Z,101651.91
2022-11-05T10:42:55.360Z,101651.91
2022-11-05T10:45:58.668Z,101657.19
2022-11-05T10:48:52.157Z,101655.44
2022-11-05T10:51:24.391Z,101656.31
2022-11-05T10:54:06.506Z,101662.38
2022-11-05T10:56:41.080Z,101656.09
2022-11-05T10:59:29.520Z,101665.75
2022-11-05T11:02:30.354Z,101659.72
2022-11-05T11:05:02.382Z,101659.78
2022-11-05T11:07:34.683Z,101664.16
2022-11-05T11:10:06.864Z,101663.31
2022-11-05T11:12:43.363Z,101660.69
2022-11-05T11:15:20.255Z,101659.81
2022-11-05T11:17:52.685Z,101661.56
2022-11-05T11:20:32.193Z,101660.69
2022-11-05T11:23:12.223Z,101662.41
2022-11-05T11:26:08.437Z,101669.44
2022-11-05T11:28:59.499Z,101658.13
2022-11-05T11:31:33.805Z,101661.63
2022-11-05T11:34:34.052Z,101663.38
2022-11-05T11:37:19.346Z,101654.66
2022-11-05T11:40:20.266Z,101660.75
2022-11-05T11:42:57.208Z,101656.41
2022-11-05T11:45:52.259Z,101650.28
2022-11-05T11:48:29.828Z,101652.03
2022-11-05T11:51:40.604Z,101652.91
2022-11-05T11:54:23.909Z,101652.91
2022-11-05T11:56:59.154Z,101655.53
2022-11-05T12:00:01.927Z,101657.25
2022-11-05T12:02:50.235Z,101656.41
2022-11-05T12:05:42.324Z,101652.91
2022-11-05T12:08:44.971Z,101657.25
2022-11-05T12:11:38.239Z,101665.13
2022-11-05T12:14:50.112Z,101666.00
2022-11-05T12:18:04.966Z,101657.25
2022-11-05T12:20:58.376Z,101663.38
2022-11-05T12:23:56.025Z,101659.00
2022-11-05T12:27:01.914Z,101663.38
2022-11-05T12:30:05.413Z,101668.63
2022-11-05T12:33:15.276Z,101659.88
2022-11-05T12:36:06.990Z,101659.00
2022-11-05T12:39:00.043Z,101657.25
2022-11-05T12:41:51.036Z,101665.13
2022-11-05T12:44:41.322Z,101662.50
2022-11-05T12:48:10.590Z,101667.75
2022-11-05T12:50:55.728Z,101654.63
2022-11-05T12:54:08.939Z,101657.28
2022-11-05T12:56:52.764Z,101659.88
2022-11-05T12:59:39.793Z,101649.38
2022-11-05T13:02:33.282Z,101646.78
2022-11-05T13:05:33.966Z,101662.50
2022-11-05T13:08:08.671Z,101646.75
2022-11-05T13:10:51.830Z,101646.78
2022-11-05T13:14:06.173Z,101646.72
2022-11-05T13:17:03.950Z,101648.50
2022-11-05T13:20:22.053Z,101644.97
2022-11-05T13:23:07.221Z,101645.84
2022-11-05T13:25:46.691Z,101642.38
2022-11-05T13:28:35.950Z,101644.16
2022-11-05T13:31:16.749Z,101645.91
2022-11-05T13:33:52.168Z,101645.91
2022-11-05T13:37:15.747Z,101630.16
2022-11-05T13:40:03.683Z,101634.53
2022-11-05T13:43:13.134Z,101640.66
2022-11-05T13:46:10.511Z,101639.78
2022-11-05T13:49:03.696Z,101652.88
2022-11-05T13:52:28.828Z,101637.16
2022-11-05T13:55:21.919Z,101645.00
2022-11-05T13:58:15.736Z,101643.28
2022-11-05T14:01:24.993Z,101645.03
2022-11-05T14:03:57.354Z,101647.66
2022-11-05T14:06:34.723Z,101645.91
2022-11-05T14:09:12.496Z,101649.41
2022-11-05T14:11:52.834Z,101640.66
2022-11-05T14:14:28.001Z,101653.75
2022-11-05T14:17:09.031Z,101645.03
2022-11-05T14:20:03.173Z,101651.16
2022-11-05T14:22:40.993Z,101650.28
2022-11-05T14:25:18.933Z,101651.16
2022-11-05T14:27:53.747Z,101642.41
2022-11-05T14:30:48.936Z,101648.53
2022-11-05T14:33:26.871Z,101638.03
2022-11-05T14:36:30.872Z,101639.78
2022-11-05T14:39:30.572Z,101648.53
2022-11-05T14:42:19.900Z,101642.38
2022-11-05T14:45:28.585Z,101652.81
2022-11-05T14:48:22.057Z,101657.19
2022-11-05T14:50:55.115Z,101649.34
2022-11-05T14:53:39.934Z,101656.31
2022-11-05T14:56:18.986Z,101657.19
2022-11-05T14:59:26.118Z,101642.41
2022-11-05T15:02:12.470Z,101652.91
2022-11-05T15:04:48.075Z,101647.66
2022-11-05T15:07:23.437Z,101646.78
2022-11-05T15:10:15.918Z,101653.75
2022-11-05T15:13:04.067Z,101651.09
2022-11-05T15:15:44.351Z,101645.00
2022-11-05T15:18:31.934Z,101645.84
2022-11-05T15:21:05.032Z,101640.59
2022-11-05T15:23:43.195Z,101630.13
2022-11-05T15:26:41.205Z,101634.50
2022-11-05T15:29:22.308Z,101634.47
2022-11-05T15:31:54.804Z,101630.09
2022-11-05T15:34:35.780Z,101629.22
2022-11-05T15:37:13.775Z,101630.97
2022-11-05T15:39:48.930Z,101632.69
2022-11-05T15:42:28.084Z,101635.31
2022-11-05T15:45:00.669Z,101637.94
2022-11-05T15:47:36.715Z,101641.41
2022-11-05T15:50:15.576Z,101644.03
2022-11-05T15:52:54.055Z,101654.50
2022-11-05T15:55:26.573Z,101643.94
2022-11-05T15:58:06.487Z,101650.97
2022-11-05T16:00:38.542Z,101650.84
2022-11-05T16:03:22.620Z,101654.38
2022-11-05T16:05:55.328Z,101646.56
2022-11-05T16:08:29.986Z,101642.25
2022-11-05T16:11:02.397Z,101641.28
2022-11-05T16:13:41.264Z,101645.69
2022-11-05T16:16:18.354Z,101650.06
2022-11-05T16:18:50.839Z,101643.88
2022-11-05T16:21:23.616Z,101650.84
2022-11-05T16:23:59.231Z,101654.34
2022-11-05T16:29:33.959Z,101659.53
2022-11-05T16:32:30.820Z,101657.75
2022-11-05T16:35:06.702Z,101647.25
2022-11-05T16:37:41.745Z,101652.47
2022-11-05T16:40:18.486Z,101658.59
2022-11-05T16:42:53.914Z,101656.00
2022-11-05T16:45:26.128Z,101661.25
2022-11-05T16:47:58.301Z,101669.94
2022-11-05T16:50:33.631Z,101664.69
2022-11-05T16:53:05.582Z,101663.81
2022-11-05T16:55:40.499Z,101669.94
2022-11-05T16:58:32.211Z,101669.03
2022-11-05T17:01:08.517Z,101675.06
2022-11-05T17:03:40.663Z,101665.50
2022-11-05T17:06:15.380Z,101669.00
2022-11-05T17:08:48.696Z,101669.84
2022-11-05T17:11:21.904Z,101673.31
2022-11-05T17:13:53.930Z,101682.03
2022-11-05T17:16:26.902Z,101681.16
2022-11-05T17:18:58.824Z,101679.38
2022-11-05T17:21:30.836Z,101674.09
2022-11-05T17:24:02.779Z,101680.22
2022-11-05T17:26:34.899Z,101674.13
2022-11-05T17:29:06.822Z,101670.66
2022-11-05T17:31:42.396Z,101681.00
2022-11-05T17:34:14.343Z,101686.19
2022-11-05T17:36:46.349Z,101671.31
2022-11-05T17:39:18.284Z,101675.72
2022-11-05T17:41:50.312Z,101678.34
2022-11-05T17:44:22.735Z,101667.88
2022-11-05T17:46:54.901Z,101680.03
2022-11-05T17:49:26.873Z,101680.16
2022-11-05T17:51:58.907Z,101677.53
2022-11-05T17:54:30.880Z,101677.59
2022-11-05T17:57:04.824Z,101676.69
2022-11-05T17:59:36.829Z,101671.38
2022-11-05T18:02:12.676Z,101668.81
2022-11-05T18:04:45.179Z,101670.50
2022-11-05T18:07:17.922Z,101663.53
2022-11-05T18:09:49.890Z,101670.50
2022-11-05T18:12:21.855Z,101665.28
2022-11-05T18:14:53.781Z,101666.06
2022-11-05T18:17:26.173Z,101664.38
2022-11-05T18:19:58.456Z,101663.47
2022-11-05T18:22:30.688Z,101661.72
2022-11-05T18:25:02.834Z,101666.13
2022-11-05T18:27:35.367Z,101661.75
2022-11-05T18:30:08.768Z,101665.22
2022-11-05T18:32:40.884Z,101660.88
2022-11-05T18:35:14.564Z,101662.63
2022-11-05T18:37:46.554Z,101656.56
2022-11-05T18:40:18.537Z,101667.88
2022-11-05T18:42:50.488Z,101662.63
2022-11-05T18:45:26.968Z,101660.84
2022-11-05T18:48:02.385Z,101660.88
2022-11-05T18:50:34.450Z,101660.84
2022-11-05T18:53:06.542Z,101651.16
2022-11-05T18:55:41.903Z,101652.94
2022-11-05T18:58:14.785Z,101648.63
2022-11-05T19:00:47.131Z,101649.50
2022-11-05T19:03:19.171Z,101643.44
2022-11-05T19:05:51.110Z,101646.97
2022-11-05T19:08:23.151Z,101661.75
2022-11-05T19:10:56.640Z,101659.19
2022-11-05T19:13:28.565Z,101668.75
2022-11-05T19:16:00.572Z,101660.06
2022-11-05T19:18:32.613Z,101653.09
2022-11-05T19:21:09.744Z,101654.84
2022-11-05T19:23:41.962Z,101655.72
2022-11-05T19:26:23.006Z,101658.25
2022-11-05T19:29:01.927Z,101650.28
2022-11-05T19:31:34.420Z,101653.72
2022-11-05T19:34:06.632Z,101651.13
2022-11-05T19:36:38.567Z,101652.88
2022-11-05T19:39:14.420Z,101656.41
2022-11-05T19:41:48.007Z,101658.13
2022-11-05T19:44:20.189Z,101655.53
2022-11-05T19:46:52.176Z,101637.13
2022-11-05T19:49:24.499Z,101635.41
2022-11-05T19:51:56.750Z,101639.72
2022-11-05T19:54:28.819Z,101638.94
2022-11-05T19:57:01.973Z,101635.38
2022-11-05T19:59:34.031Z,101644.16
2022-11-05T20:02:09.385Z,101645.06
2022-11-05T20:04:44.416Z,101638.00
2022-11-05T20:07:16.445Z,101648.44
2022-11-05T20:09:48.814Z,101637.16
2022-11-05T20:12:20.858Z,101642.41
2022-11-05T20:14:52.804Z,101642.41
2022-11-05T20:17:24.866Z,101645.03
2022-11-05T20:19:56.950Z,101646.72
2022-11-05T20:22:28.863Z,101647.56
2022-11-05T20:25:00.922Z,101652.81
2022-11-05T20:27:32.914Z,101645.91
2022-11-05T20:30:06.309Z,101646.75
2022-11-05T20:32:38.294Z,101645.00
2022-11-05T20:35:10.505Z,101638.00
2022-11-05T20:37:42.531Z,101640.56
2022-11-05T20:40:15.229Z,101644.00
2022-11-05T20:42:47.179Z,101649.31
2022-11-05T20:45:19.088Z,101643.22
2022-11-05T20:47:51.261Z,101650.22
2022-11-05T20:50:23.332Z,101655.44
2022-11-05T20:52:55.384Z,101654.56
2022-11-05T20:55:27.472Z,101652.81
2022-11-05T20:58:00.084Z,101658.94
2022-11-05T21:00:32.115Z,101659.81
2022-11-05T21:03:04.984Z,101655.44
2022-11-05T21:05:36.888Z,101645.03
2022-11-05T21:08:08.890Z,101642.34
2022-11-05T21:10:41.429Z,101638.00
2022-11-05T21:13:14.614Z,101643.22
2022-11-05T21:15:52.941Z,101648.41
2022-11-05T21:18:29.048Z,101644.03
2022-11-05T21:21:05.149Z,101641.41
2022-11-05T21:23:37.468Z,101636.22
2022-11-05T21:26:15.032Z,101637.94
2022-11-05T21:28:47.012Z,101631.78
2022-11-05T21:31:19.113Z,101631.03
2022-11-05T21:33:54.997Z,101629.28
2022-11-05T21:36:27.477Z,101618.75
2022-11-05T21:38:59.565Z,101623.03
2022-11-05T21:41:31.567Z,101622.19
2022-11-05T21:44:04.298Z,101612.63
2022-11-05T21:46:37.827Z,101619.47
2022-11-05T21:49:09.803Z,101615.09
2022-11-05T21:52:00.353Z,101614.16
2022-11-05T21:54:51.224Z,101604.63
2022-11-05T21:57:41.775Z,101599.31
2022-11-05T22:00:14.115Z,101604.56
2022-11-05T22:02:46.191Z,101605.41
2022-11-05T22:05:18.507Z,101597.59
2022-11-05T22:07:50.599Z,101604.53
2022-11-05T22:10:22.749Z,101598.47
2022-11-05T22:12:54.972Z,101592.38
2022-11-05T22:15:26.941Z,101586.31
2022-11-05T22:17:58.990Z,101588.91
2022-11-05T22:20:30.953Z,101589.72
2022-11-05T22:23:06.266Z,101584.59
2022-11-05T22:25:40.650Z,101586.31
2022-11-05T22:28:15.668Z,101581.81
2022-11-05T22:30:47.768Z,101579.16
2022-11-05T22:33:19.745Z,101574.81
2022-11-05T22:35:51.642Z,101577.66
2022-11-05T22:38:23.658Z,101577.72
2022-11-05T22:40:55.661Z,101575.03
2022-11-05T22:43:27.632Z,101572.44
2022-11-05T22:46:05.806Z,101569.78
2022-11-05T22:48:39.919Z,101566.28
2022-11-05T22:51:19.263Z,101559.34
2022-11-05T22:53:52.431Z,101560.22
2022-11-05T22:56:28.651Z,101557.56
2022-11-05T22:59:00.857Z,101565.34
2022-11-05T23:01:32.918Z,101559.19
2022-11-05T23:04:05.230Z,101562.78
2022-11-05T23:06:55.890Z,101560.22
2022-11-05T23:09:50.500Z,101558.56
2022-11-05T23:12:32.464Z,101561.94
2022-11-05T23:15:07.486Z,101562.88
2022-11-05T23:17:58.370Z,101559.47
2022-11-05T23:20:48.688Z,101562.13
2022-11-05T23:23:38.883Z,101562.06
2022-11-05T23:26:29.256Z,101560.38
2022-11-05T23:29:01.069Z,101561.22
2022-11-05T23:31:51.383Z,101557.00
2022-11-05T23:34:23.315Z,101553.44
2022-11-05T23:37:13.703Z,101547.28
2022-11-05T23:39:45.711Z,101541.09
2022-11-05T23:42:36.469Z,101545.50
2022-11-05T23:45:28.230Z,101542.06
2022-11-05T23:48:17.066Z,101534.19
2022-11-05T23:50:56.466Z,101540.22
2022-11-05T23:53:30.775Z,101530.81
2022-11-05T23:56:10.852Z,101528.19
2022-11-05T23:58:43.184Z,101527.31
